sensor_id;sensor_type;location;lat;lon;timestamp;P1;durP1;ratioP1;P2;durP2;ratioP2
86382;SDS011;77029;47.696;10.348;2024-03-29T00:01:19;1.88;;;1.27;;
86382;SDS011;77029;47.696;10.348;2024-03-29T00:03:45;1.90;;;1.00;;
86382;SDS011;77029;47.696;10.348;2024-03-29T00:06:11;2.00;;;1.80;;
86382;SDS011;77029;47.696;10.348;2024-03-29T00:08:37;2.17;;;1.70;;
86382;SDS011;77029;47.696;10.348;2024-03-29T00:11:03;4.20;;;3.10;;
86382;SDS011;77029;47.696;10.348;2024-03-29T00:13:29;5.15;;;3.42;;
86382;SDS011;77029;47.696;10.348;2024-03-29T00:15:55;2.97;;;2.67;;
86382;SDS011;77029;47.696;10.348;2024-03-29T00:18:21;2.47;;;1.63;;
86382;SDS011;77029;47.696;10.348;2024-03-29T00:20:47;2.65;;;1.80;;
86382;SDS011;77029;47.696;10.348;2024-03-29T00:23:13;2.17;;;1.52;;
86382;SDS011;77029;47.696;10.348;2024-03-29T00:25:39;2.70;;;1.40;;
86382;SDS011;77029;47.696;10.348;2024-03-29T00:28:06;2.95;;;1.85;;
86382;SDS011;77029;47.696;10.348;2024-03-29T00:30:32;1.98;;;1.40;;
86382;SDS011;77029;47.696;10.348;2024-03-29T00:32:58;1.00;;;0.73;;
86382;SDS011;77029;47.696;10.348;2024-03-29T00:35:24;1.40;;;1.00;;
86382;SDS011;77029;47.696;10.348;2024-03-29T00:37:51;1.27;;;0.85;;
86382;SDS011;77029;47.696;10.348;2024-03-29T00:40:17;1.20;;;0.70;;
86382;SDS011;77029;47.696;10.348;2024-03-29T00:42:43;1.85;;;1.10;;
86382;SDS011;77029;47.696;10.348;2024-03-29T00:45:09;1.23;;;0.98;;
86382;SDS011;77029;47.696;10.348;2024-03-29T00:47:35;1.65;;;1.52;;
86382;SDS011;77029;47.696;10.348;2024-03-29T00:50:02;2.90;;;1.70;;
86382;SDS011;77029;47.696;10.348;2024-03-29T00:52:28;2.25;;;1.05;;
86382;SDS011;77029;47.696;10.348;2024-03-29T00:54:54;1.27;;;0.88;;
86382;SDS011;77029;47.696;10.348;2024-03-29T00:57:20;1.35;;;0.90;;
86382;SDS011;77029;47.696;10.348;2024-03-29T00:59:46;1.13;;;0.70;;
86382;SDS011;77029;47.696;10.348;2024-03-29T01:02:12;1.95;;;0.65;;
86382;SDS011;77029;47.696;10.348;2024-03-29T01:04:38;1.85;;;0.68;;
86382;SDS011;77029;47.696;10.348;2024-03-29T01:07:06;2.30;;;0.90;;
86382;SDS011;77029;47.696;10.348;2024-03-29T01:09:32;1.27;;;0.70;;
86382;SDS011;77029;47.696;10.348;2024-03-29T01:11:58;1.83;;;0.93;;
86382;SDS011;77029;47.696;10.348;2024-03-29T01:14:24;1.80;;;0.63;;
86382;SDS011;77029;47.696;10.348;2024-03-29T01:16:50;0.93;;;0.70;;
86382;SDS011;77029;47.696;10.348;2024-03-29T01:19:16;1.00;;;0.60;;
86382;SDS011;77029;47.696;10.348;2024-03-29T01:21:42;1.00;;;0.60;;
86382;SDS011;77029;47.696;10.348;2024-03-29T01:24:08;2.33;;;0.63;;
86382;SDS011;77029;47.696;10.348;2024-03-29T01:26:35;1.85;;;0.55;;
86382;SDS011;77029;47.696;10.348;2024-03-29T01:29:01;1.20;;;0.80;;
86382;SDS011;77029;47.696;10.348;2024-03-29T01:31:27;1.00;;;0.70;;
86382;SDS011;77029;47.696;10.348;2024-03-29T01:33:53;1.10;;;0.90;;
86382;SDS011;77029;47.696;10.348;2024-03-29T01:38:49;0.85;;;0.80;;
86382;SDS011;77029;47.696;10.348;2024-03-29T01:41:17;1.08;;;0.93;;
86382;SDS011;77029;47.696;10.348;2024-03-29T01:43:44;1.25;;;0.80;;
86382;SDS011;77029;47.696;10.348;2024-03-29T01:46:10;6.20;;;5.70;;
86382;SDS011;77029;47.696;10.348;2024-03-29T01:48:36;1.38;;;1.27;;
86382;SDS011;77029;47.696;10.348;2024-03-29T01:51:03;5.35;;;1.10;;
86382;SDS011;77029;47.696;10.348;2024-03-29T01:53:29;0.93;;;0.82;;
86382;SDS011;77029;47.696;10.348;2024-03-29T01:55:56;1.15;;;0.95;;
86382;SDS011;77029;47.696;10.348;2024-03-29T01:58:25;1.65;;;0.90;;
86382;SDS011;77029;47.696;10.348;2024-03-29T02:00:55;1.15;;;0.68;;
86382;SDS011;77029;47.696;10.348;2024-03-29T02:03:23;0.68;;;0.50;;
86382;SDS011;77029;47.696;10.348;2024-03-29T02:05:50;2.55;;;0.80;;
86382;SDS011;77029;47.696;10.348;2024-03-29T02:08:16;1.73;;;0.60;;
86382;SDS011;77029;47.696;10.348;2024-03-29T02:10:43;3.40;;;0.60;;
86382;SDS011;77029;47.696;10.348;2024-03-29T02:13:11;0.90;;;0.60;;
86382;SDS011;77029;47.696;10.348;2024-03-29T02:15:38;1.02;;;0.60;;
86382;SDS011;77029;47.696;10.348;2024-03-29T02:18:06;0.75;;;0.60;;
86382;SDS011;77029;47.696;10.348;2024-03-29T02:20:35;0.68;;;0.60;;
86382;SDS011;77029;47.696;10.348;2024-03-29T02:23:03;1.17;;;0.77;;
86382;SDS011;77029;47.696;10.348;2024-03-29T02:25:33;1.48;;;0.63;;
86382;SDS011;77029;47.696;10.348;2024-03-29T02:28:00;0.98;;;0.60;;
86382;SDS011;77029;47.696;10.348;2024-03-29T02:30:28;1.55;;;0.85;;
86382;SDS011;77029;47.696;10.348;2024-03-29T02:32:58;1.70;;;0.82;;
86382;SDS011;77029;47.696;10.348;2024-03-29T02:35:26;0.73;;;0.50;;
86382;SDS011;77029;47.696;10.348;2024-03-29T02:37:52;0.70;;;0.52;;
86382;SDS011;77029;47.696;10.348;2024-03-29T02:40:19;3.03;;;0.80;;
86382;SDS011;77029;47.696;10.348;2024-03-29T02:42:45;2.05;;;0.60;;
86382;SDS011;77029;47.696;10.348;2024-03-29T02:45:13;1.40;;;0.80;;
86382;SDS011;77029;47.696;10.348;2024-03-29T02:47:39;1.10;;;0.70;;
86382;SDS011;77029;47.696;10.348;2024-03-29T02:50:06;1.52;;;0.68;;
86382;SDS011;77029;47.696;10.348;2024-03-29T02:52:34;1.08;;;0.60;;
86382;SDS011;77029;47.696;10.348;2024-03-29T02:55:00;1.45;;;0.60;;
86382;SDS011;77029;47.696;10.348;2024-03-29T02:57:26;2.92;;;0.60;;
86382;SDS011;77029;47.696;10.348;2024-03-29T02:59:52;0.88;;;0.50;;
86382;SDS011;77029;47.696;10.348;2024-03-29T03:02:19;1.63;;;0.60;;
86382;SDS011;77029;47.696;10.348;2024-03-29T03:04:45;0.55;;;0.38;;
86382;SDS011;77029;47.696;10.348;2024-03-29T03:07:11;0.73;;;0.70;;
86382;SDS011;77029;47.696;10.348;2024-03-29T03:09:55;0.75;;;0.70;;
86382;SDS011;77029;47.696;10.348;2024-03-29T03:12:40;1.80;;;1.70;;
86382;SDS011;77029;47.696;10.348;2024-03-29T03:15:06;2.60;;;1.98;;
86382;SDS011;77029;47.696;10.348;2024-03-29T03:17:33;2.17;;;1.98;;
86382;SDS011;77029;47.696;10.348;2024-03-29T03:19:59;1.73;;;1.52;;
86382;SDS011;77029;47.696;10.348;2024-03-29T03:22:25;1.85;;;0.70;;
86382;SDS011;77029;47.696;10.348;2024-03-29T03:24:51;1.65;;;0.80;;
86382;SDS011;77029;47.696;10.348;2024-03-29T03:27:17;0.60;;;0.50;;
86382;SDS011;77029;47.696;10.348;2024-03-29T03:29:43;1.63;;;0.57;;
86382;SDS011;77029;47.696;10.348;2024-03-29T03:32:09;0.88;;;0.57;;
86382;SDS011;77029;47.696;10.348;2024-03-29T03:34:35;0.82;;;0.43;;
86382;SDS011;77029;47.696;10.348;2024-03-29T03:37:01;0.80;;;0.57;;
86382;SDS011;77029;47.696;10.348;2024-03-29T03:39:27;0.82;;;0.40;;
86382;SDS011;77029;47.696;10.348;2024-03-29T03:41:53;2.10;;;0.38;;
86382;SDS011;77029;47.696;10.348;2024-03-29T03:44:19;1.55;;;0.50;;
86382;SDS011;77029;47.696;10.348;2024-03-29T03:46:47;0.80;;;0.50;;
86382;SDS011;77029;47.696;10.348;2024-03-29T03:49:13;0.88;;;0.50;;
86382;SDS011;77029;47.696;10.348;2024-03-29T03:51:39;0.30;;;0.30;;
86382;SDS011;77029;47.696;10.348;2024-03-29T03:54:05;2.63;;;1.40;;
86382;SDS011;77029;47.696;10.348;2024-03-29T03:56:31;1.13;;;0.55;;
86382;SDS011;77029;47.696;10.348;2024-03-29T03:58:57;1.65;;;0.40;;
86382;SDS011;77029;47.696;10.348;2024-03-29T04:01:23;1.58;;;0.55;;
86382;SDS011;77029;47.696;10.348;2024-03-29T04:03:49;1.08;;;0.57;;
86382;SDS011;77029;47.696;10.348;2024-03-29T04:06:15;0.73;;;0.40;;
86382;SDS011;77029;47.696;10.348;2024-03-29T04:08:43;0.73;;;0.50;;
86382;SDS011;77029;47.696;10.348;2024-03-29T04:11:10;0.57;;;0.30;;
86382;SDS011;77029;47.696;10.348;2024-03-29T04:13:36;0.85;;;0.50;;
86382;SDS011;77029;47.696;10.348;2024-03-29T04:16:07;1.60;;;0.50;;
86382;SDS011;77029;47.696;10.348;2024-03-29T04:18:33;1.65;;;0.50;;
86382;SDS011;77029;47.696;10.348;2024-03-29T04:21:00;0.73;;;0.30;;
86382;SDS011;77029;47.696;10.348;2024-03-29T04:23:27;0.73;;;0.50;;
86382;SDS011;77029;47.696;10.348;2024-03-29T04:25:54;0.80;;;0.52;;
86382;SDS011;77029;47.696;10.348;2024-03-29T04:28:23;2.55;;;0.60;;
86382;SDS011;77029;47.696;10.348;2024-03-29T04:30:54;1.40;;;1.00;;
86382;SDS011;77029;47.696;10.348;2024-03-29T04:33:21;3.55;;;1.80;;
86382;SDS011;77029;47.696;10.348;2024-03-29T04:35:54;1.85;;;1.50;;
86382;SDS011;77029;47.696;10.348;2024-03-29T04:38:23;4.65;;;3.50;;
86382;SDS011;77029;47.696;10.348;2024-03-29T04:40:53;2.38;;;1.60;;
86382;SDS011;77029;47.696;10.348;2024-03-29T04:43:21;1.00;;;0.90;;
86382;SDS011;77029;47.696;10.348;2024-03-29T04:45:48;0.50;;;0.45;;
86382;SDS011;77029;47.696;10.348;2024-03-29T04:48:14;0.95;;;0.60;;
86382;SDS011;77029;47.696;10.348;2024-03-29T04:50:40;0.35;;;0.32;;
86382;SDS011;77029;47.696;10.348;2024-03-29T04:53:07;0.50;;;0.47;;
86382;SDS011;77029;47.696;10.348;2024-03-29T04:55:34;0.60;;;0.40;;
86382;SDS011;77029;47.696;10.348;2024-03-29T04:58:01;0.43;;;0.22;;
86382;SDS011;77029;47.696;10.348;2024-03-29T05:00:28;0.95;;;0.40;;
86382;SDS011;77029;47.696;10.348;2024-03-29T05:02:54;0.38;;;0.30;;
86382;SDS011;77029;47.696;10.348;2024-03-29T05:05:20;0.40;;;0.28;;
86382;SDS011;77029;47.696;10.348;2024-03-29T05:07:46;0.65;;;0.30;;
86382;SDS011;77029;47.696;10.348;2024-03-29T05:10:12;0.57;;;0.40;;
86382;SDS011;77029;47.696;10.348;2024-03-29T05:12:38;0.77;;;0.50;;
86382;SDS011;77029;47.696;10.348;2024-03-29T05:15:04;0.80;;;0.60;;
86382;SDS011;77029;47.696;10.348;2024-03-29T05:17:30;2.15;;;0.65;;
86382;SDS011;77029;47.696;10.348;2024-03-29T05:19:57;2.72;;;0.60;;
86382;SDS011;77029;47.696;10.348;2024-03-29T05:22:23;0.55;;;0.52;;
86382;SDS011;77029;47.696;10.348;2024-03-29T05:24:52;0.43;;;0.35;;
86382;SDS011;77029;47.696;10.348;2024-03-29T05:27:20;0.38;;;0.30;;
86382;SDS011;77029;47.696;10.348;2024-03-29T05:29:46;0.75;;;0.55;;
86382;SDS011;77029;47.696;10.348;2024-03-29T05:32:12;1.20;;;0.90;;
86382;SDS011;77029;47.696;10.348;2024-03-29T05:34:38;0.77;;;0.68;;
86382;SDS011;77029;47.696;10.348;2024-03-29T05:37:04;1.35;;;0.68;;
86382;SDS011;77029;47.696;10.348;2024-03-29T05:39:30;0.70;;;0.60;;
86382;SDS011;77029;47.696;10.348;2024-03-29T05:41:56;2.20;;;0.60;;
86382;SDS011;77029;47.696;10.348;2024-03-29T05:44:23;0.85;;;0.60;;
86382;SDS011;77029;47.696;10.348;2024-03-29T05:46:50;0.98;;;0.50;;
86382;SDS011;77029;47.696;10.348;2024-03-29T05:49:16;1.80;;;0.70;;
86382;SDS011;77029;47.696;10.348;2024-03-29T05:51:42;0.52;;;0.47;;
86382;SDS011;77029;47.696;10.348;2024-03-29T05:54:08;0.80;;;0.60;;
86382;SDS011;77029;47.696;10.348;2024-03-29T05:56:34;0.70;;;0.50;;
86382;SDS011;77029;47.696;10.348;2024-03-29T05:59:00;0.88;;;0.63;;
86382;SDS011;77029;47.696;10.348;2024-03-29T06:01:26;2.05;;;1.13;;
86382;SDS011;77029;47.696;10.348;2024-03-29T06:03:52;2.10;;;1.92;;
86382;SDS011;77029;47.696;10.348;2024-03-29T06:06:20;1.10;;;1.00;;
86382;SDS011;77029;47.696;10.348;2024-03-29T06:08:50;2.60;;;2.40;;
86382;SDS011;77029;47.696;10.348;2024-03-29T06:11:17;1.88;;;1.60;;
86382;SDS011;77029;47.696;10.348;2024-03-29T06:13:43;1.65;;;1.05;;
86382;SDS011;77029;47.696;10.348;2024-03-29T06:16:19;1.58;;;1.20;;
86382;SDS011;77029;47.696;10.348;2024-03-29T06:19:04;2.38;;;1.67;;
86382;SDS011;77029;47.696;10.348;2024-03-29T06:21:30;6.85;;;2.65;;
86382;SDS011;77029;47.696;10.348;2024-03-29T06:24:07;9.50;;;2.50;;
86382;SDS011;77029;47.696;10.348;2024-03-29T06:26:41;7.13;;;2.75;;
86382;SDS011;77029;47.696;10.348;2024-03-29T06:29:07;7.15;;;2.15;;
86382;SDS011;77029;47.696;10.348;2024-03-29T06:31:37;6.18;;;2.33;;
86382;SDS011;77029;47.696;10.348;2024-03-29T06:34:03;4.93;;;1.92;;
86382;SDS011;77029;47.696;10.348;2024-03-29T06:36:29;3.85;;;1.80;;
86382;SDS011;77029;47.696;10.348;2024-03-29T06:38:56;8.10;;;2.92;;
86382;SDS011;77029;47.696;10.348;2024-03-29T06:41:22;4.22;;;1.77;;
86382;SDS011;77029;47.696;10.348;2024-03-29T06:43:48;3.03;;;1.75;;
86382;SDS011;77029;47.696;10.348;2024-03-29T06:46:15;1.83;;;1.25;;
86382;SDS011;77029;47.696;10.348;2024-03-29T06:48:41;2.28;;;1.10;;
86382;SDS011;77029;47.696;10.348;2024-03-29T06:51:07;2.58;;;1.17;;
86382;SDS011;77029;47.696;10.348;2024-03-29T06:53:33;1.67;;;1.00;;
86382;SDS011;77029;47.696;10.348;2024-03-29T06:56:00;2.78;;;1.50;;
86382;SDS011;77029;47.696;10.348;2024-03-29T06:58:27;2.47;;;1.55;;
86382;SDS011;77029;47.696;10.348;2024-03-29T07:00:53;3.25;;;1.77;;
86382;SDS011;77029;47.696;10.348;2024-03-29T07:03:19;2.13;;;1.20;;
86382;SDS011;77029;47.696;10.348;2024-03-29T07:05:46;6.70;;;2.00;;
86382;SDS011;77029;47.696;10.348;2024-03-29T07:08:12;1.70;;;1.13;;
86382;SDS011;77029;47.696;10.348;2024-03-29T07:10:38;2.90;;;1.50;;
86382;SDS011;77029;47.696;10.348;2024-03-29T07:13:08;1.80;;;1.27;;
86382;SDS011;77029;47.696;10.348;2024-03-29T07:15:35;2.33;;;1.55;;
86382;SDS011;77029;47.696;10.348;2024-03-29T07:18:01;2.20;;;1.30;;
86382;SDS011;77029;47.696;10.348;2024-03-29T07:20:30;2.80;;;1.40;;
86382;SDS011;77029;47.696;10.348;2024-03-29T07:22:57;2.28;;;1.40;;
86382;SDS011;77029;47.696;10.348;2024-03-29T07:25:23;2.85;;;1.30;;
86382;SDS011;77029;47.696;10.348;2024-03-29T07:27:49;2.50;;;1.20;;
86382;SDS011;77029;47.696;10.348;2024-03-29T07:30:15;1.42;;;1.10;;
86382;SDS011;77029;47.696;10.348;2024-03-29T07:32:42;3.65;;;1.33;;
86382;SDS011;77029;47.696;10.348;2024-03-29T07:35:09;1.52;;;1.08;;
86382;SDS011;77029;47.696;10.348;2024-03-29T07:37:35;1.38;;;0.68;;
86382;SDS011;77029;47.696;10.348;2024-03-29T07:40:01;0.68;;;0.60;;
86382;SDS011;77029;47.696;10.348;2024-03-29T07:42:27;0.50;;;0.50;;
86382;SDS011;77029;47.696;10.348;2024-03-29T07:44:53;0.80;;;0.60;;
86382;SDS011;77029;47.696;10.348;2024-03-29T07:47:19;1.55;;;0.60;;
86382;SDS011;77029;47.696;10.348;2024-03-29T07:49:47;2.17;;;1.38;;
86382;SDS011;77029;47.696;10.348;2024-03-29T07:52:13;0.95;;;0.75;;
86382;SDS011;77029;47.696;10.348;2024-03-29T07:54:39;1.35;;;1.00;;
86382;SDS011;77029;47.696;10.348;2024-03-29T07:57:05;1.50;;;0.70;;
86382;SDS011;77029;47.696;10.348;2024-03-29T07:59:34;1.00;;;0.68;;
86382;SDS011;77029;47.696;10.348;2024-03-29T08:02:00;1.30;;;0.88;;
86382;SDS011;77029;47.696;10.348;2024-03-29T08:04:28;0.80;;;0.60;;
86382;SDS011;77029;47.696;10.348;2024-03-29T08:06:54;1.00;;;0.50;;
86382;SDS011;77029;47.696;10.348;2024-03-29T08:09:20;2.25;;;0.70;;
86382;SDS011;77029;47.696;10.348;2024-03-29T08:11:46;0.77;;;0.60;;
86382;SDS011;77029;47.696;10.348;2024-03-29T08:14:12;0.77;;;0.68;;
86382;SDS011;77029;47.696;10.348;2024-03-29T08:16:38;1.00;;;0.70;;
86382;SDS011;77029;47.696;10.348;2024-03-29T08:19:04;1.73;;;0.73;;
86382;SDS011;77029;47.696;10.348;2024-03-29T08:21:31;0.90;;;0.80;;
86382;SDS011;77029;47.696;10.348;2024-03-29T08:23:57;1.80;;;0.85;;
86382;SDS011;77029;47.696;10.348;2024-03-29T08:26:23;1.25;;;0.90;;
86382;SDS011;77029;47.696;10.348;2024-03-29T08:28:50;3.88;;;1.92;;
86382;SDS011;77029;47.696;10.348;2024-03-29T08:31:16;4.45;;;2.00;;
86382;SDS011;77029;47.696;10.348;2024-03-29T08:33:42;3.25;;;1.63;;
86382;SDS011;77029;47.696;10.348;2024-03-29T08:36:09;2.47;;;1.80;;
86382;SDS011;77029;47.696;10.348;2024-03-29T08:38:37;2.33;;;1.20;;
86382;SDS011;77029;47.696;10.348;2024-03-29T08:41:07;2.80;;;1.33;;
86382;SDS011;77029;47.696;10.348;2024-03-29T08:43:33;2.35;;;1.23;;
86382;SDS011;77029;47.696;10.348;2024-03-29T08:46:00;2.53;;;1.35;;
86382;SDS011;77029;47.696;10.348;2024-03-29T08:48:26;2.45;;;1.20;;
86382;SDS011;77029;47.696;10.348;2024-03-29T08:50:53;1.60;;;1.25;;
86382;SDS011;77029;47.696;10.348;2024-03-29T08:53:19;7.05;;;1.52;;
86382;SDS011;77029;47.696;10.348;2024-03-29T08:55:47;3.83;;;1.95;;
86382;SDS011;77029;47.696;10.348;2024-03-29T08:58:16;2.88;;;1.60;;
86382;SDS011;77029;47.696;10.348;2024-03-29T09:00:43;2.80;;;1.40;;
86382;SDS011;77029;47.696;10.348;2024-03-29T09:03:09;1.80;;;1.20;;
86382;SDS011;77029;47.696;10.348;2024-03-29T09:05:35;1.88;;;1.23;;
86382;SDS011;77029;47.696;10.348;2024-03-29T09:08:02;1.67;;;1.25;;
86382;SDS011;77029;47.696;10.348;2024-03-29T09:10:28;3.05;;;1.50;;
86382;SDS011;77029;47.696;10.348;2024-03-29T09:12:54;2.30;;;1.63;;
86382;SDS011;77029;47.696;10.348;2024-03-29T09:15:21;3.05;;;1.60;;
86382;SDS011;77029;47.696;10.348;2024-03-29T09:17:47;4.47;;;2.35;;
86382;SDS011;77029;47.696;10.348;2024-03-29T09:20:13;3.90;;;2.15;;
86382;SDS011;77029;47.696;10.348;2024-03-29T09:22:41;4.70;;;1.63;;
86382;SDS011;77029;47.696;10.348;2024-03-29T09:25:07;1.67;;;1.20;;
86382;SDS011;77029;47.696;10.348;2024-03-29T09:27:36;1.55;;;1.13;;
86382;SDS011;77029;47.696;10.348;2024-03-29T09:30:05;2.13;;;1.10;;
86382;SDS011;77029;47.696;10.348;2024-03-29T09:32:32;3.47;;;1.40;;
86382;SDS011;77029;47.696;10.348;2024-03-29T09:34:59;2.22;;;1.25;;
86382;SDS011;77029;47.696;10.348;2024-03-29T09:37:26;2.10;;;1.08;;
86382;SDS011;77029;47.696;10.348;2024-03-29T09:39:52;2.42;;;1.20;;
86382;SDS011;77029;47.696;10.348;2024-03-29T09:42:18;2.47;;;1.63;;
86382;SDS011;77029;47.696;10.348;2024-03-29T09:44:48;1.60;;;1.10;;
86382;SDS011;77029;47.696;10.348;2024-03-29T09:47:17;2.45;;;1.38;;
86382;SDS011;77029;47.696;10.348;2024-03-29T09:49:44;3.17;;;1.48;;
86382;SDS011;77029;47.696;10.348;2024-03-29T09:52:13;3.03;;;1.77;;
86382;SDS011;77029;47.696;10.348;2024-03-29T09:54:39;3.13;;;1.33;;
86382;SDS011;77029;47.696;10.348;2024-03-29T09:57:06;2.28;;;1.00;;
86382;SDS011;77029;47.696;10.348;2024-03-29T09:59:34;2.22;;;0.90;;
86382;SDS011;77029;47.696;10.348;2024-03-29T10:02:00;2.08;;;0.82;;
86382;SDS011;77029;47.696;10.348;2024-03-29T10:04:35;3.40;;;1.10;;
86382;SDS011;77029;47.696;10.348;2024-03-29T10:07:02;1.88;;;0.77;;
86382;SDS011;77029;47.696;10.348;2024-03-29T10:09:29;1.60;;;0.70;;
86382;SDS011;77029;47.696;10.348;2024-03-29T10:11:58;1.98;;;0.73;;
86382;SDS011;77029;47.696;10.348;2024-03-29T10:14:24;1.80;;;0.75;;
86382;SDS011;77029;47.696;10.348;2024-03-29T10:16:50;2.20;;;0.70;;
86382;SDS011;77029;47.696;10.348;2024-03-29T10:19:17;0.60;;;0.43;;
86382;SDS011;77029;47.696;10.348;2024-03-29T10:21:44;1.70;;;0.73;;
86382;SDS011;77029;47.696;10.348;2024-03-29T10:24:11;1.70;;;0.90;;
86382;SDS011;77029;47.696;10.348;2024-03-29T10:26:38;1.80;;;0.70;;
86382;SDS011;77029;47.696;10.348;2024-03-29T10:29:05;1.92;;;0.90;;
86382;SDS011;77029;47.696;10.348;2024-03-29T10:31:37;1.23;;;0.60;;
86382;SDS011;77029;47.696;10.348;2024-03-29T10:34:03;1.52;;;0.77;;
86382;SDS011;77029;47.696;10.348;2024-03-29T10:36:34;2.10;;;1.10;;
86382;SDS011;77029;47.696;10.348;2024-03-29T10:39:19;1.35;;;1.00;;
86382;SDS011;77029;47.696;10.348;2024-03-29T10:41:46;0.80;;;0.70;;
86382;SDS011;77029;47.696;10.348;2024-03-29T10:44:13;6.70;;;0.70;;
86382;SDS011;77029;47.696;10.348;2024-03-29T10:46:40;0.73;;;0.50;;
86382;SDS011;77029;47.696;10.348;2024-03-29T10:49:10;1.92;;;0.82;;
86382;SDS011;77029;47.696;10.348;2024-03-29T10:51:40;5.95;;;1.15;;
86382;SDS011;77029;47.696;10.348;2024-03-29T10:54:10;0.75;;;0.40;;
86382;SDS011;77029;47.696;10.348;2024-03-29T10:56:38;0.90;;;0.60;;
86382;SDS011;77029;47.696;10.348;2024-03-29T10:59:12;1.50;;;0.70;;
86382;SDS011;77029;47.696;10.348;2024-03-29T11:01:45;1.13;;;0.82;;
86382;SDS011;77029;47.696;10.348;2024-03-29T11:04:20;1.00;;;0.60;;
86382;SDS011;77029;47.696;10.348;2024-03-29T11:06:51;1.85;;;0.68;;
86382;SDS011;77029;47.696;10.348;2024-03-29T11:09:22;0.75;;;0.55;;
86382;SDS011;77029;47.696;10.348;2024-03-29T11:11:55;2.38;;;0.57;;
86382;SDS011;77029;47.696;10.348;2024-03-29T11:14:26;0.88;;;0.47;;
86382;SDS011;77029;47.696;10.348;2024-03-29T11:16:58;1.20;;;0.80;;
86382;SDS011;77029;47.696;10.348;2024-03-29T11:19:25;1.13;;;0.63;;
86382;SDS011;77029;47.696;10.348;2024-03-29T11:21:51;4.88;;;0.75;;
86382;SDS011;77029;47.696;10.348;2024-03-29T11:24:19;1.10;;;0.63;;
86382;SDS011;77029;47.696;10.348;2024-03-29T11:26:48;0.75;;;0.60;;
86382;SDS011;77029;47.696;10.348;2024-03-29T11:29:18;1.13;;;0.60;;
86382;SDS011;77029;47.696;10.348;2024-03-29T11:31:46;2.47;;;0.70;;
86382;SDS011;77029;47.696;10.348;2024-03-29T11:34:13;3.10;;;0.70;;
86382;SDS011;77029;47.696;10.348;2024-03-29T11:36:39;1.08;;;0.60;;
86382;SDS011;77029;47.696;10.348;2024-03-29T11:39:05;2.33;;;0.65;;
86382;SDS011;77029;47.696;10.348;2024-03-29T11:41:31;3.00;;;0.90;;
86382;SDS011;77029;47.696;10.348;2024-03-29T11:43:58;0.93;;;0.60;;
86382;SDS011;77029;47.696;10.348;2024-03-29T11:46:24;1.45;;;0.80;;
86382;SDS011;77029;47.696;10.348;2024-03-29T11:48:51;1.55;;;0.68;;
86382;SDS011;77029;47.696;10.348;2024-03-29T11:53:47;0.85;;;0.65;;
86382;SDS011;77029;47.696;10.348;2024-03-29T11:58:42;1.90;;;0.60;;
86382;SDS011;77029;47.696;10.348;2024-03-29T12:01:08;1.38;;;0.63;;
86382;SDS011;77029;47.696;10.348;2024-03-29T12:03:40;1.48;;;0.50;;
86382;SDS011;77029;47.696;10.348;2024-03-29T12:06:08;1.30;;;0.70;;
86382;SDS011;77029;47.696;10.348;2024-03-29T12:08:38;1.20;;;0.50;;
86382;SDS011;77029;47.696;10.348;2024-03-29T12:11:04;1.27;;;0.50;;
86382;SDS011;77029;47.696;10.348;2024-03-29T12:13:31;1.00;;;0.35;;
86382;SDS011;77029;47.696;10.348;2024-03-29T12:16:30;0.40;;;0.40;;
86382;SDS011;77029;47.696;10.348;2024-03-29T12:21:57;0.95;;;0.57;;
86382;SDS011;77029;47.696;10.348;2024-03-29T12:24:23;0.65;;;0.40;;
86382;SDS011;77029;47.696;10.348;2024-03-29T12:26:49;0.75;;;0.40;;
86382;SDS011;77029;47.696;10.348;2024-03-29T12:29:15;0.20;;;0.20;;
86382;SDS011;77029;47.696;10.348;2024-03-29T12:31:42;0.68;;;0.30;;
86382;SDS011;77029;47.696;10.348;2024-03-29T12:34:08;0.57;;;0.43;;
86382;SDS011;77029;47.696;10.348;2024-03-29T12:36:34;0.77;;;0.40;;
86382;SDS011;77029;47.696;10.348;2024-03-29T12:39:00;0.70;;;0.40;;
86382;SDS011;77029;47.696;10.348;2024-03-29T12:41:31;1.30;;;0.40;;
86382;SDS011;77029;47.696;10.348;2024-03-29T12:43:58;1.73;;;0.60;;
86382;SDS011;77029;47.696;10.348;2024-03-29T12:46:25;0.70;;;0.35;;
86382;SDS011;77029;47.696;10.348;2024-03-29T12:48:58;1.25;;;0.50;;
86382;SDS011;77029;47.696;10.348;2024-03-29T12:51:26;1.35;;;0.40;;
86382;SDS011;77029;47.696;10.348;2024-03-29T12:53:53;0.90;;;0.50;;
86382;SDS011;77029;47.696;10.348;2024-03-29T12:56:19;0.40;;;0.28;;
86382;SDS011;77029;47.696;10.348;2024-03-29T12:58:45;0.90;;;0.35;;
86382;SDS011;77029;47.696;10.348;2024-03-29T13:01:11;0.20;;;0.20;;
86382;SDS011;77029;47.696;10.348;2024-03-29T13:06:27;0.45;;;0.30;;
86382;SDS011;77029;47.696;10.348;2024-03-29T13:08:54;0.22;;;0.22;;
86382;SDS011;77029;47.696;10.348;2024-03-29T13:11:22;0.45;;;0.22;;
86382;SDS011;77029;47.696;10.348;2024-03-29T13:13:49;1.00;;;0.32;;
86382;SDS011;77029;47.696;10.348;2024-03-29T13:16:15;0.30;;;0.20;;
86382;SDS011;77029;47.696;10.348;2024-03-29T13:18:41;0.22;;;0.20;;
86382;SDS011;77029;47.696;10.348;2024-03-29T13:21:07;0.50;;;0.32;;
86382;SDS011;77029;47.696;10.348;2024-03-29T13:23:33;1.25;;;0.30;;
86382;SDS011;77029;47.696;10.348;2024-03-29T13:26:00;1.23;;;0.40;;
86382;SDS011;77029;47.696;10.348;2024-03-29T13:28:26;0.40;;;0.20;;
86382;SDS011;77029;47.696;10.348;2024-03-29T13:30:52;1.90;;;0.40;;
86382;SDS011;77029;47.696;10.348;2024-03-29T13:33:18;0.88;;;0.30;;
86382;SDS011;77029;47.696;10.348;2024-03-29T13:35:44;0.50;;;0.20;;
86382;SDS011;77029;47.696;10.348;2024-03-29T13:38:11;0.32;;;0.20;;
86382;SDS011;77029;47.696;10.348;2024-03-29T13:40:37;0.45;;;0.32;;
86382;SDS011;77029;47.696;10.348;2024-03-29T13:43:05;0.50;;;0.50;;
86382;SDS011;77029;47.696;10.348;2024-03-29T13:45:32;0.65;;;0.50;;
86382;SDS011;77029;47.696;10.348;2024-03-29T13:47:59;0.38;;;0.20;;
86382;SDS011;77029;47.696;10.348;2024-03-29T13:50:25;0.63;;;0.30;;
86382;SDS011;77029;47.696;10.348;2024-03-29T13:52:51;1.15;;;0.50;;
86382;SDS011;77029;47.696;10.348;2024-03-29T13:55:17;0.50;;;0.30;;
86382;SDS011;77029;47.696;10.348;2024-03-29T13:57:43;0.40;;;0.30;;
86382;SDS011;77029;47.696;10.348;2024-03-29T14:00:10;0.80;;;0.40;;
86382;SDS011;77029;47.696;10.348;2024-03-29T14:02:40;1.05;;;0.30;;
86382;SDS011;77029;47.696;10.348;2024-03-29T14:05:06;0.38;;;0.10;;
86382;SDS011;77029;47.696;10.348;2024-03-29T14:07:32;0.30;;;0.20;;
86382;SDS011;77029;47.696;10.348;2024-03-29T14:09:58;0.73;;;0.30;;
86382;SDS011;77029;47.696;10.348;2024-03-29T14:12:24;0.52;;;0.20;;
86382;SDS011;77029;47.696;10.348;2024-03-29T14:14:51;0.93;;;0.28;;
86382;SDS011;77029;47.696;10.348;2024-03-29T14:17:18;0.20;;;0.13;;
86382;SDS011;77029;47.696;10.348;2024-03-29T14:19:45;0.10;;;0.10;;
86382;SDS011;77029;47.696;10.348;2024-03-29T14:22:11;0.55;;;0.10;;
86382;SDS011;77029;47.696;10.348;2024-03-29T14:24:42;1.85;;;0.30;;
86382;SDS011;77029;47.696;10.348;2024-03-29T14:27:08;0.60;;;0.43;;
86382;SDS011;77029;47.696;10.348;2024-03-29T14:29:35;0.90;;;0.50;;
86382;SDS011;77029;47.696;10.348;2024-03-29T14:32:01;1.33;;;0.20;;
86382;SDS011;77029;47.696;10.348;2024-03-29T14:34:28;2.03;;;0.30;;
86382;SDS011;77029;47.696;10.348;2024-03-29T14:36:58;2.22;;;0.50;;
86382;SDS011;77029;47.696;10.348;2024-03-29T14:39:24;1.30;;;0.40;;
86382;SDS011;77029;47.696;10.348;2024-03-29T14:41:51;2.10;;;0.40;;
86382;SDS011;77029;47.696;10.348;2024-03-29T14:44:18;2.38;;;0.65;;
86382;SDS011;77029;47.696;10.348;2024-03-29T14:46:46;3.20;;;0.77;;